KPLN/PLN METAR and TAF weather

Enter ICAO airport designator
Station Type Date Time Source
KPLN METAR 2020/07/07 08:54 UTC NOAA

KPLN 070854Z AUTO 00000KT 10SM -RA FEW050 SCT090 SCT110 22/20 A2991 RMK AO2 RAB43 SLP125 P0000 60000 T02220200 56008


Station Type Date Time Source
KPLN Decoded METAR 2020/07/07 08:54 UTC NOAA

PELLSTON REGIONAL AIRPORT, MI, United States (KPLN) 45-34N 084-48W 217M
Jul 07, 2020 - 04:54 AM EDT / 2020.07.07 0854 UTC
Wind: Calm:0
Visibility: 10 mile(s):0
Sky conditions: partly cloudy
Weather: light rain
Precipitation last hour: A trace
Temperature: 72.0 F (22.2 C)
Dew Point: 68.0 F (20.0 C)
Relative Humidity: 87%
Pressure (altimeter): 29.91 in. Hg (1012 hPa)
Pressure tendency: 0.02 inches (0.8 hPa) lower than three hours ago
ob: KPLN 070854Z AUTO 00000KT 10SM -RA FEW050 SCT090 SCT110 22/20 A2991 RMK AO2 RAB43 SLP125 P0000 60000 T02220200 56008
cycle: 9

Station Type Date Time Source
KPLN TAF 2020/07/07 06:30 UTC NOAA

TAF KPLN 070527Z 0706/0806 VRB03KT P6SM VCSH BKN050
FM071500 28009KT P6SM SCT060 BKN120
FM080100 VRB03KT P6SM SCT250

Example: see airport list